Benton, Mississippi
Current Conditions -  °F | °C
As of 2:53 PM on Sunday 23 Nov 2014 (Local Time) from KHKS Reporting Station
Scattered Clouds Scattered Clouds  
Wind Chill: 70°   Ceiling: Unl
Heat Index: 70°   Visibility: 10mi
Dew Point: 57°   Wind: 15mph
Humidity: 63%   Direction: 200°SSW
Pressure: 29.5"   Gusts: 22mph
Location:  32.83°N, 90.26°W
Report Text: KHKS 232053Z 20013G19KT 10SM SCT033 21/14 A2950 RMK AO2 SLP983 T02110139 56010
Loading
Personal Weather Stations






























Interactive Weather Map New forecast layout! Learn more

10-Day Weather Forecast

Advertisements
Track Severe Weather on mobile